Time;durP1;ratioP1;P1;durP2;ratioP2;P2;SDS_P1;SDS_P2;PMS_P1;PMS_P2;Temp;Humidity;BMP_temperature;BMP_pressure;BME280_temperature;BME280_humidity;BME280_pressure;Samples;Min_cycle;Max_cycle;Signal;HPM_P1;HPM_P2
2021/01/10 00:00:29;;;;;;;0.40;0.40;;;15.20;69.40;;;;;;4214841;28;20128;-40
2021/01/10 00:02:51;;;;;;;0.00;0.00;;;15.20;69.50;;;;;;4214594;28;20043;-39
2021/01/10 00:05:20;;;;;;;0.93;0.93;;;15.20;69.70;;;;;;4214545;28;20516;-39
2021/01/10 00:07:41;;;;;;;0.20;0.20;;;15.10;69.90;;;;;;4198404;28;20449;-39
2021/01/10 00:10:04;;;;;;;0.10;0.10;;;15.10;69.80;;;;;;4197934;28;20111;-40
2021/01/10 00:12:26;;;;;;;0.00;0.00;;;15.20;69.80;;;;;;4197920;28;20056;-39
2021/01/10 00:14:47;;;;;;;0.00;0.00;;;15.10;69.70;;;;;;4197285;28;20052;-40
2021/01/10 00:17:08;;;;;;;0.75;0.75;;;15.10;69.80;;;;;;4198023;28;20083;-39
2021/01/10 00:19:30;;;;;;;0.30;0.30;;;15.20;69.60;;;;;;4201717;28;20117;-39
2021/01/10 00:21:51;;;;;;;0.60;0.60;;;15.30;69.00;;;;;;4215075;28;20056;-39
2021/01/10 00:24:12;;;;;;;0.30;0.30;;;15.40;68.60;;;;;;4214428;28;20536;-40
2021/01/10 00:26:34;;;;;;;0.85;0.85;;;15.40;68.50;;;;;;4214445;28;20070;-40
2021/01/10 00:28:54;;;;;;;1.08;0.98;;;15.40;68.50;;;;;;4214455;28;20052;-40
2021/01/10 00:31:15;;;;;;;1.27;1.27;;;15.30;68.70;;;;;;4214671;28;20495;-40
2021/01/10 00:33:37;;;;;;;0.43;0.43;;;15.40;68.60;;;;;;4214457;28;20498;-41
2021/01/10 00:35:58;;;;;;;0.10;0.10;;;15.60;67.60;;;;;;4214303;28;20062;-39
2021/01/10 00:38:19;;;;;;;0.55;0.55;;;15.90;66.70;;;;;;4214541;28;20131;-40
2021/01/10 00:40:40;;;;;;;0.22;0.22;;;16.00;66.10;;;;;;4214252;28;20465;-40
2021/01/10 00:43:02;;;;;;;0.10;0.10;;;16.10;65.70;;;;;;4214323;28;20052;-40
2021/01/10 00:45:23;;;;;;;0.25;0.25;;;16.10;65.40;;;;;;4213108;28;20098;-40
2021/01/10 00:47:47;;;;;;;0.10;0.10;;;16.10;65.50;;;;;;4214005;28;20579;-39
2021/01/10 00:50:15;;;;;;;0.00;0.00;;;16.00;65.70;;;;;;4214460;28;20410;-43
2021/01/10 00:52:37;;;;;;;0.05;0.05;;;15.90;65.90;;;;;;4212976;28;20107;-40
2021/01/10 00:54:58;;;;;;;0.50;0.50;;;15.80;66.20;;;;;;4213286;28;20127;-40
2021/01/10 00:57:20;;;;;;;0.20;0.20;;;15.80;66.60;;;;;;4212893;28;20054;-40
2021/01/10 00:59:41;;;;;;;0.80;0.80;;;15.80;66.60;;;;;;4212790;28;20658;-39
2021/01/10 01:02:02;;;;;;;0.28;0.28;;;15.80;66.40;;;;;;4214229;28;20443;-39
2021/01/10 01:04:23;;;;;;;0.10;0.10;;;15.80;66.30;;;;;;4212787;28;22078;-39
2021/01/10 01:06:46;;;;;;;0.10;0.10;;;15.80;66.50;;;;;;4212622;28;20048;-39
2021/01/10 01:09:08;;;;;;;0.85;0.85;;;15.80;66.30;;;;;;4212603;28;20063;-39
2021/01/10 01:11:29;;;;;;;;;;;15.90;66.10;;;;;;4214700;28;20056;-39
2021/01/10 01:13:50;;;;;;;0.00;0.00;;;15.90;66.10;;;;;;4213806;28;19959;-40
2021/01/10 01:16:11;;;;;;;0.10;0.10;;;15.80;66.10;;;;;;4213780;28;20525;-39
2021/01/10 01:18:32;;;;;;;0.20;0.20;;;15.80;66.30;;;;;;4213919;28;20445;-39
2021/01/10 01:20:53;;;;;;;0.65;0.30;;;15.70;66.50;;;;;;4199415;28;20145;-39
2021/01/10 01:23:15;;;;;;;0.17;0.17;;;15.80;66.30;;;;;;4213893;28;20052;-39
2021/01/10 01:25:37;;;;;;;0.00;0.00;;;15.90;65.90;;;;;;4213626;28;20498;-39
2021/01/10 01:27:58;;;;;;;3.47;0.80;;;16.00;65.50;;;;;;4213520;28;20471;-39
2021/01/10 01:30:19;;;;;;;0.27;0.27;;;16.00;65.20;;;;;;4214047;28;20051;-39
2021/01/10 01:32:41;;;;;;;0.63;0.63;;;16.00;65.10;;;;;;4213620;28;20437;-40
2021/01/10 01:35:03;;;;;;;0.43;0.43;;;16.10;64.80;;;;;;4212723;28;20131;-40
2021/01/10 01:37:25;;;;;;;0.00;0.00;;;16.10;64.50;;;;;;4213280;28;20094;-39
2021/01/10 01:39:46;;;;;;;0.00;0.00;;;16.10;64.50;;;;;;4213407;28;20052;-39
2021/01/10 01:42:13;;;;;;;0.10;0.10;;;16.10;64.60;;;;;;4213540;28;20513;-39
2021/01/10 01:44:33;;;;;;;0.20;0.20;;;16.10;64.50;;;;;;4213112;28;20173;-40
2021/01/10 01:46:54;;;;;;;0.68;0.68;;;16.10;64.50;;;;;;4213258;28;20059;-40
2021/01/10 01:49:16;;;;;;;;;;;16.10;64.60;;;;;;4213901;28;20463;-40
2021/01/10 01:51:37;;;;;;;0.00;0.00;;;16.00;64.80;;;;;;4213306;28;20635;-40
2021/01/10 01:53:59;;;;;;;0.00;0.00;;;16.10;64.70;;;;;;4213558;28;20052;-40
2021/01/10 01:56:21;;;;;;;0.20;0.20;;;16.20;64.30;;;;;;4213140;28;20444;-40
2021/01/10 01:58:56;;;;;;;0.50;0.50;;;16.30;63.60;;;;;;4213492;28;20434;-40
2021/01/10 02:01:17;;;;;;;0.00;0.00;;;16.40;63.30;;;;;;4212975;28;20490;-40
2021/01/10 02:03:41;;;;;;;1.10;0.70;;;16.30;63.30;;;;;;4212751;28;20052;-39
2021/01/10 02:06:08;;;;;;;0.20;0.20;;;16.40;63.10;;;;;;4213034;28;20135;-40
2021/01/10 02:08:33;;;;;;;0.10;0.10;;;16.40;63.10;;;;;;4211793;28;20137;-41
2021/01/10 02:10:58;;;;;;;0.00;0.00;;;16.40;62.90;;;;;;4213331;28;20476;-40
2021/01/10 02:13:21;;;;;;;0.20;0.20;;;16.60;62.50;;;;;;4212485;28;20055;-40
2021/01/10 02:15:45;;;;;;;0.20;0.20;;;16.70;61.90;;;;;;4213076;28;20483;-39
2021/01/10 02:18:08;;;;;;;0.13;0.13;;;16.70;61.50;;;;;;4212998;28;20056;-40
2021/01/10 02:20:31;;;;;;;0.10;0.10;;;16.70;61.50;;;;;;4202988;28;20055;-40
2021/01/10 02:22:55;;;;;;;0.00;0.00;;;16.60;61.60;;;;;;4212965;28;20052;-40
2021/01/10 02:25:17;;;;;;;0.10;0.10;;;16.60;62.10;;;;;;4212530;28;20084;-39
2021/01/10 02:27:39;;;;;;;4.90;0.57;;;16.40;62.40;;;;;;4212819;28;20108;-40
2021/01/10 02:30:00;;;;;;;0.10;0.10;;;16.30;62.80;;;;;;4212645;28;20052;-40
2021/01/10 02:32:23;;;;;;;0.00;0.00;;;16.20;63.20;;;;;;4212874;28;20052;-39
2021/01/10 02:34:46;;;;;;;0.00;0.00;;;16.20;63.20;;;;;;4211004;28;20052;-39
2021/01/10 02:37:16;;;;;;;0.22;0.22;;;16.30;63.00;;;;;;4212304;28;20051;-39
2021/01/10 02:39:48;;;;;;;0.70;0.32;;;16.30;62.90;;;;;;4212949;28;20052;-40
2021/01/10 02:42:17;;;;;;;0.00;0.00;;;16.20;62.90;;;;;;4212151;28;20056;-40
2021/01/10 02:44:42;;;;;;;0.00;0.00;;;16.20;63.00;;;;;;4212492;28;20505;-40
2021/01/10 02:47:03;;;;;;;0.28;0.28;;;16.30;62.80;;;;;;4212530;28;20062;-39
2021/01/10 02:49:24;;;;;;;0.00;0.00;;;16.40;62.50;;;;;;4212068;28;20052;-40
2021/01/10 02:51:46;;;;;;;;;;;16.40;62.10;;;;;;4213052;28;20051;-40
2021/01/10 02:54:07;;;;;;;0.00;0.00;;;16.40;62.10;;;;;;4212055;28;20307;-39
2021/01/10 02:56:30;;;;;;;0.00;0.00;;;16.50;61.80;;;;;;4212411;28;20140;-39
2021/01/10 02:58:55;;;;;;;0.15;0.15;;;16.50;61.70;;;;;;4211170;28;20127;-39
2021/01/10 03:01:18;;;;;;;0.00;0.00;;;16.50;61.50;;;;;;4212744;28;20135;-40
2021/01/10 03:03:39;;;;;;;0.10;0.10;;;16.40;61.70;;;;;;4211882;28;20055;-40
2021/01/10 03:06:02;;;;;;;0.28;0.28;;;16.40;62.00;;;;;;4212336;28;20048;-40
2021/01/10 03:08:25;;;;;;;0.10;0.10;;;16.40;61.90;;;;;;4212357;28;20058;-40
2021/01/10 03:10:48;;;;;;;0.85;0.85;;;16.60;61.50;;;;;;4212328;28;20121;-40
2021/01/10 03:13:09;;;;;;;0.08;0.08;;;16.60;60.70;;;;;;4205315;28;20070;-39
2021/01/10 03:15:32;;;;;;;0.05;0.05;;;16.70;60.40;;;;;;4212162;28;20052;-40
2021/01/10 03:17:53;;;;;;;0.00;0.00;;;16.70;60.60;;;;;;4211985;28;20056;-40
2021/01/10 03:20:16;;;;;;;0.10;0.10;;;16.60;60.80;;;;;;4211691;28;20055;-40
2021/01/10 03:22:37;;;;;;;0.10;0.10;;;16.50;61.20;;;;;;4212550;28;20452;-40
2021/01/10 03:24:58;;;;;;;0.00;0.00;;;16.40;61.40;;;;;;4212271;28;20135;-40
2021/01/10 03:27:19;;;;;;;0.57;0.57;;;16.30;62.00;;;;;;4213155;28;20192;-40
2021/01/10 03:29:40;;;;;;;0.30;0.30;;;16.10;62.30;;;;;;4215503;28;20052;-39
2021/01/10 03:32:02;;;;;;;0.10;0.10;;;16.00;62.60;;;;;;4215211;28;20066;-40
2021/01/10 03:34:23;;;;;;;0.00;0.00;;;16.00;62.90;;;;;;4215409;28;20068;-40
2021/01/10 03:36:45;;;;;;;0.05;0.05;;;15.90;63.00;;;;;;4215587;28;20422;-40
2021/01/10 03:39:06;;;;;;;0.20;0.20;;;15.90;63.10;;;;;;4215249;28;20087;-39
2021/01/10 03:41:27;;;;;;;0.75;0.75;;;15.80;64.30;;;;;;4215439;28;20416;-40
2021/01/10 03:43:48;;;;;;;0.00;0.00;;;15.70;63.70;;;;;;4215256;28;20494;-40
2021/01/10 03:46:09;;;;;;;0.00;0.00;;;15.60;64.10;;;;;;4215027;28;20059;-40
2021/01/10 03:48:33;;;;;;;0.10;0.10;;;15.50;64.50;;;;;;4215041;28;20055;-39
2021/01/10 03:50:54;;;;;;;0.10;0.10;;;15.50;64.80;;;;;;4215185;28;20062;-39
2021/01/10 03:53:15;;;;;;;0.00;0.00;;;15.60;64.40;;;;;;4214821;28;20089;-40
2021/01/10 03:55:36;;;;;;;0.00;0.00;;;15.90;63.50;;;;;;4215277;28;20133;-41
2021/01/10 03:57:57;;;;;;;0.08;0.08;;;16.10;62.70;;;;;;4215260;28;20131;-40
2021/01/10 04:00:19;;;;;;;0.70;0.70;;;16.20;62.00;;;;;;4214989;28;20056;-40
2021/01/10 04:02:39;;;;;;;0.00;0.00;;;16.30;61.60;;;;;;4214828;28;20052;-40
2021/01/10 04:05:01;;;;;;;0.05;0.05;;;16.30;61.40;;;;;;4214722;28;20506;-40
2021/01/10 04:07:22;;;;;;;0.30;0.30;;;16.30;61.50;;;;;;4215105;28;20048;-40
2021/01/10 04:09:43;;;;;;;0.05;0.05;;;16.20;61.60;;;;;;4215090;28;20056;-40
2021/01/10 04:12:05;;;;;;;0.10;0.10;;;16.10;61.80;;;;;;4214617;28;20075;-40
2021/01/10 04:14:25;;;;;;;0.25;0.25;;;16.00;62.20;;;;;;4215011;28;20298;-39
2021/01/10 04:16:46;;;;;;;0.85;0.68;;;15.90;62.60;;;;;;4214941;28;20132;-40
2021/01/10 04:19:07;;;;;;;0.38;0.38;;;16.00;62.30;;;;;;4197983;28;20056;-40
2021/01/10 04:21:36;;;;;;;2.15;1.45;;;16.10;62.10;;;;;;4209657;28;20075;-40
2021/01/10 04:23:57;;;;;;;0.00;0.00;;;16.30;61.50;;;;;;4214677;28;20155;-40
2021/01/10 04:26:17;;;;;;;0.20;0.20;;;16.50;60.90;;;;;;4214491;28;20055;-40
2021/01/10 04:28:38;;;;;;;0.00;0.00;;;16.60;60.30;;;;;;4214755;28;20491;-40
2021/01/10 04:31:00;;;;;;;0.10;0.10;;;16.70;59.90;;;;;;4214439;28;20054;-40
2021/01/10 04:33:21;;;;;;;0.10;0.10;;;16.70;59.70;;;;;;4214408;28;20139;-40
2021/01/10 04:35:42;;;;;;;0.52;0.52;;;16.70;59.80;;;;;;4214375;28;20048;-40
2021/01/10 04:38:04;;;;;;;0.00;0.00;;;16.60;60.00;;;;;;4214431;28;20052;-40
2021/01/10 04:40:25;;;;;;;0.10;0.10;;;16.50;60.30;;;;;;4214044;28;20046;-40
2021/01/10 04:42:47;;;;;;;0.70;0.70;;;16.50;60.40;;;;;;4214027;28;20062;-40
2021/01/10 04:45:08;;;;;;;0.00;0.00;;;16.60;59.90;;;;;;4214458;28;20052;-39
2021/01/10 04:47:29;;;;;;;0.08;0.08;;;16.70;59.50;;;;;;4213869;28;20056;-40
2021/01/10 04:49:52;;;;;;;0.00;0.00;;;16.80;59.40;;;;;;4214470;28;20078;-39
2021/01/10 04:52:14;;;;;;;0.03;0.03;;;16.70;59.40;;;;;;4213850;28;20059;-39
2021/01/10 04:54:40;;;;;;;0.10;0.10;;;16.70;59.40;;;;;;4214258;28;20056;-40
2021/01/10 04:57:04;;;;;;;0.20;0.20;;;16.80;59.20;;;;;;4214094;28;20153;-40
2021/01/10 04:59:28;;;;;;;0.00;0.00;;;16.80;59.10;;;;;;4214115;28;20048;-40
2021/01/10 05:01:53;;;;;;;0.10;0.10;;;16.80;59.20;;;;;;4213863;28;20048;-40
2021/01/10 05:04:14;;;;;;;0.08;0.08;;;16.70;59.40;;;;;;4214019;28;20083;-40
2021/01/10 05:06:35;;;;;;;;;;;16.60;59.70;;;;;;4214305;28;20048;-39
2021/01/10 05:08:57;;;;;;;0.00;0.00;;;16.60;59.70;;;;;;4213894;28;19931;-40
2021/01/10 05:11:19;;;;;;;;;;;16.60;59.80;;;;;;4214125;28;20080;-39
2021/01/10 05:13:40;;;;;;;;;;;16.50;59.90;;;;;;4214522;28;19931;-42
2021/01/10 05:16:01;;;;;;;0.00;0.00;;;16.40;60.20;;;;;;4213651;28;20383;-40
2021/01/10 05:18:23;;;;;;;0.00;0.00;;;16.40;60.20;;;;;;4213635;28;20052;-39
2021/01/10 05:20:46;;;;;;;0.00;0.00;;;16.40;60.20;;;;;;4213807;28;20048;-40
2021/01/10 05:23:07;;;;;;;0.00;0.00;;;16.30;60.20;;;;;;4213253;28;20093;-41
2021/01/10 05:25:29;;;;;;;0.30;0.30;;;16.30;60.50;;;;;;4213637;28;20086;-40
2021/01/10 05:27:53;;;;;;;0.00;0.00;;;16.20;60.90;;;;;;4213786;28;20080;-40
2021/01/10 05:30:16;;;;;;;0.00;0.00;;;16.00;61.30;;;;;;4213564;28;20079;-40
2021/01/10 05:32:37;;;;;;;0.10;0.10;;;16.00;61.70;;;;;;4213291;28;20055;-40
2021/01/10 05:35:01;;;;;;;0.10;0.10;;;16.10;61.60;;;;;;4213829;28;20059;-40
2021/01/10 05:37:22;;;;;;;0.00;0.00;;;16.30;61.10;;;;;;4212233;28;20052;-39
2021/01/10 05:39:43;;;;;;;;;;;16.50;60.20;;;;;;4213508;28;20506;-40
2021/01/10 05:42:05;;;;;;;0.00;0.00;;;16.70;59.70;;;;;;4213058;28;19931;-40
2021/01/10 05:44:28;;;;;;;0.30;0.30;;;16.80;59.30;;;;;;4213604;28;20048;-39
2021/01/10 05:47:00;;;;;;;0.30;0.30;;;16.80;59.30;;;;;;4213042;28;20410;-39
2021/01/10 05:49:22;;;;;;;0.15;0.15;;;16.80;59.40;;;;;;4212911;28;20052;-40
2021/01/10 05:51:44;;;;;;;0.47;0.47;;;16.70;59.60;;;;;;4213315;28;20134;-39
2021/01/10 05:54:05;;;;;;;0.10;0.10;;;16.70;59.70;;;;;;4213366;28;20052;-39
2021/01/10 05:56:26;;;;;;;0.10;0.10;;;16.80;59.50;;;;;;4213289;28;20048;-39
2021/01/10 05:58:54;;;;;;;0.00;0.00;;;16.70;59.50;;;;;;4213142;28;20079;-39
2021/01/10 06:01:16;;;;;;;0.00;0.00;;;16.70;59.60;;;;;;4213025;28;20048;-39
2021/01/10 06:03:37;;;;;;;0.10;0.10;;;16.70;59.70;;;;;;4213081;28;20044;-39
2021/01/10 06:05:59;;;;;;;;;;;16.60;59.80;;;;;;4213351;28;20109;-39
2021/01/10 06:08:26;;;;;;;;;;;16.60;60.20;;;;;;4213418;28;19923;-39
2021/01/10 06:10:47;;;;;;;0.65;0.55;;;16.50;60.50;;;;;;4212848;28;19924;-39
2021/01/10 06:13:07;;;;;;;0.00;0.00;;;16.40;60.90;;;;;;4196279;28;20059;-39
2021/01/10 06:15:32;;;;;;;0.40;0.40;;;16.20;61.20;;;;;;4196245;28;20080;-40
2021/01/10 06:17:54;;;;;;;0.00;0.00;;;16.10;61.90;;;;;;4212871;28;20051;-40
2021/01/10 06:20:24;;;;;;;0.13;0.13;;;16.00;62.50;;;;;;4213114;28;20044;-39
2021/01/10 06:22:50;;;;;;;0.00;0.00;;;15.90;62.90;;;;;;4212627;28;20506;-39
2021/01/10 06:25:12;;;;;;;0.00;0.00;;;15.90;62.70;;;;;;4212901;28;20483;-39
2021/01/10 06:27:36;;;;;;;0.30;0.30;;;16.10;62.20;;;;;;4212788;28;20055;-39
2021/01/10 06:29:59;;;;;;;0.00;0.00;;;16.30;61.50;;;;;;4212827;28;20086;-39
2021/01/10 06:32:24;;;;;;;0.00;0.00;;;16.40;60.90;;;;;;4212348;28;20078;-40
2021/01/10 06:34:47;;;;;;;0.00;0.00;;;16.60;60.40;;;;;;4212513;28;20060;-39
2021/01/10 06:37:10;;;;;;;0.00;0.00;;;16.60;60.10;;;;;;4212530;28;20052;-39
2021/01/10 06:39:34;;;;;;;0.35;0.35;;;16.60;59.90;;;;;;4212417;28;20566;-40
2021/01/10 06:42:14;;;;;;;0.00;0.00;;;16.70;59.80;;;;;;4212516;28;20101;-39
2021/01/10 06:44:37;;;;;;;1.65;1.55;;;16.90;59.30;;;;;;4211575;28;20056;-40
2021/01/10 06:46:58;;;;;;;0.17;0.17;;;17.00;59.10;;;;;;4212244;28;20495;-40
2021/01/10 06:49:20;;;;;;;0.15;0.15;;;16.90;59.80;;;;;;4212346;28;20518;-39
2021/01/10 06:51:44;;;;;;;0.00;0.00;;;16.90;59.30;;;;;;4212598;28;20127;-40
2021/01/10 06:54:06;;;;;;;0.08;0.08;;;16.80;59.60;;;;;;4212521;28;20048;-40
2021/01/10 06:56:27;;;;;;;0.00;0.00;;;16.60;59.80;;;;;;4212058;28;20048;-40
2021/01/10 06:59:05;;;;;;;0.08;0.08;;;16.50;60.30;;;;;;4212326;28;20055;-40
2021/01/10 07:02:02;;;;;;;0.00;0.00;;;16.40;60.90;;;;;;4211837;28;20055;-40
2021/01/10 07:04:25;;;;;;;0.00;0.00;;;16.30;61.30;;;;;;4212359;28;20052;-40
2021/01/10 07:06:47;;;;;;;0.20;0.20;;;16.30;61.30;;;;;;4212339;28;20052;-40
2021/01/10 07:09:08;;;;;;;0.00;0.00;;;16.50;60.80;;;;;;4212502;28;20059;-41
2021/01/10 07:11:38;;;;;;;0.00;0.00;;;16.50;60.70;;;;;;4211986;28;20052;-41
2021/01/10 07:14:27;;;;;;;0.10;0.10;;;16.60;60.40;;;;;;4212111;28;20048;-40
2021/01/10 07:16:49;;;;;;;0.00;0.00;;;16.80;60.20;;;;;;4212333;28;20058;-40
2021/01/10 07:19:11;;;;;;;0.00;0.00;;;16.90;59.80;;;;;;4212189;28;20052;-40
2021/01/10 07:21:34;;;;;;;0.00;0.00;;;17.00;59.90;;;;;;4212420;28;20501;-40
2021/01/10 07:24:30;;;;;;;0.55;0.55;;;17.10;59.80;;;;;;4212220;28;20060;-40
2021/01/10 07:26:52;;;;;;;0.00;0.00;;;17.00;59.70;;;;;;4204299;28;20052;-41
2021/01/10 07:29:25;;;;;;;0.00;0.00;;;16.90;60.70;;;;;;4212119;28;20085;-39
2021/01/10 07:31:54;;;;;;;0.00;0.00;;;16.90;61.10;;;;;;4211703;28;20052;-41
2021/01/10 07:34:16;;;;;;;0.00;0.00;;;16.80;61.60;;;;;;4212204;28;20051;-40
2021/01/10 07:36:50;;;;;;;0.05;0.05;;;16.80;62.00;;;;;;4212362;28;20134;-40
2021/01/10 07:39:12;;;;;;;0.00;0.00;;;17.00;61.00;;;;;;4212302;28;20052;-40
2021/01/10 07:41:33;;;;;;;0.03;0.03;;;17.10;59.90;;;;;;4212994;28;20052;-39
2021/01/10 07:43:55;;;;;;;0.00;0.00;;;17.20;59.40;;;;;;4211081;28;20102;-41
2021/01/10 07:46:52;;;;;;;0.73;0.65;;;17.30;59.10;;;;;;4211476;28;20082;-40
2021/01/10 07:49:15;;;;;;;5.05;1.77;;;17.30;58.80;;;;;;4208648;28;20048;-40
2021/01/10 07:51:45;;;;;;;0.00;0.00;;;17.30;58.80;;;;;;4212232;28;20048;-40
2021/01/10 07:54:06;;;;;;;0.20;0.20;;;17.20;59.00;;;;;;4195404;28;20637;-40
2021/01/10 07:56:28;;;;;;;16.15;1.08;;;17.20;59.10;;;;;;4209806;28;20059;-40
2021/01/10 07:59:13;;;;;;;0.00;0.00;;;17.20;59.00;;;;;;4212204;28;20056;-40
2021/01/10 08:01:47;;;;;;;0.10;0.10;;;17.10;59.10;;;;;;4211759;28;20139;-40
2021/01/10 08:04:09;;;;;;;0.17;0.17;;;17.00;59.40;;;;;;4211965;28;20422;-40
2021/01/10 08:06:56;;;;;;;27.23;2.47;;;16.90;59.60;;;;;;4212013;28;20052;-40
2021/01/10 08:09:18;;;;;;;0.57;0.57;;;17.00;59.50;;;;;;4211953;28;20048;-39
2021/01/10 08:11:52;;;;;;;0.00;0.00;;;17.00;59.30;;;;;;4211338;28;20063;-40
2021/01/10 08:14:13;;;;;;;0.10;0.10;;;17.00;59.30;;;;;;4214095;28;20673;-40
2021/01/10 08:16:34;;;;;;;0.00;0.00;;;17.00;59.50;;;;;;4214468;28;20055;-41
2021/01/10 08:19:01;;;;;;;0.00;0.00;;;17.10;59.40;;;;;;4215039;28;20494;-41
2021/01/10 08:21:24;;;;;;;0.00;0.00;;;17.10;59.30;;;;;;4214588;28;20059;-40
2021/01/10 08:23:46;;;;;;;0.00;0.00;;;17.10;59.40;;;;;;4213379;28;20052;-40
2021/01/10 08:26:10;;;;;;;0.05;0.05;;;17.10;59.60;;;;;;4214794;28;20056;-40
2021/01/10 08:28:34;;;;;;;0.00;0.00;;;17.30;59.40;;;;;;4197868;28;20056;-40
2021/01/10 08:31:02;;;;;;;0.00;0.00;;;17.40;58.90;;;;;;4204368;28;20518;-40
2021/01/10 08:33:23;;;;;;;0.20;0.20;;;17.50;58.50;;;;;;4214165;28;20055;-40
2021/01/10 08:35:44;;;;;;;0.00;0.00;;;17.50;58.50;;;;;;4214021;28;20425;-40
2021/01/10 08:38:05;;;;;;;0.00;0.00;;;17.60;58.60;;;;;;4214384;28;20063;-41
2021/01/10 08:40:25;;;;;;;0.75;0.43;;;17.50;59.60;;;;;;4212489;28;20052;-40
2021/01/10 08:42:46;;;;;;;0.00;0.00;;;17.30;59.10;;;;;;4213247;28;20442;-40
2021/01/10 08:45:20;;;;;;;0.00;0.00;;;17.10;59.50;;;;;;4214400;28;20054;-40
2021/01/10 08:47:42;;;;;;;0.20;0.20;;;16.90;59.80;;;;;;4215198;28;20087;-43
2021/01/10 08:50:04;;;;;;;0.20;0.20;;;16.80;60.50;;;;;;4197634;28;20641;-42
2021/01/10 08:52:35;;;;;;;0.00;0.00;;;16.70;60.70;;;;;;4208191;28;20105;-40
2021/01/10 08:54:56;;;;;;;0.00;0.00;;;16.80;60.50;;;;;;4211318;28;20047;-40
2021/01/10 08:57:18;;;;;;;0.75;0.75;;;16.70;60.60;;;;;;4213971;28;20475;-40
2021/01/10 08:59:39;;;;;;;0.88;0.57;;;16.70;60.80;;;;;;4209450;28;20508;-41
2021/01/10 09:02:07;;;;;;;0.00;0.00;;;16.60;60.90;;;;;;4213626;28;20498;-42
2021/01/10 09:04:28;;;;;;;0.00;0.00;;;16.70;60.40;;;;;;4213796;28;20056;-41
2021/01/10 09:06:58;;;;;;;0.00;0.00;;;16.70;60.10;;;;;;4213778;28;20063;-41
2021/01/10 09:09:25;;;;;;;0.00;0.00;;;16.70;59.80;;;;;;4213233;28;20051;-42
2021/01/10 09:11:50;;;;;;;0.00;0.00;;;16.50;59.70;;;;;;4213356;28;20109;-41
2021/01/10 09:14:14;;;;;;;0.00;0.00;;;16.50;59.80;;;;;;4197301;28;20053;-45
2021/01/10 09:16:39;;;;;;;0.80;0.30;;;16.60;59.50;;;;;;4209731;28;20435;-41
2021/01/10 09:19:03;;;;;;;0.00;0.00;;;16.70;58.90;;;;;;4213974;28;20048;-42
2021/01/10 09:21:27;;;;;;;0.20;0.20;;;16.80;58.50;;;;;;4212997;28;20048;-40
2021/01/10 09:23:49;;;;;;;0.43;0.43;;;16.80;58.30;;;;;;4213102;28;20059;-41
2021/01/10 09:26:24;;;;;;;0.00;0.00;;;16.70;58.20;;;;;;4213179;28;20096;-40
2021/01/10 09:28:45;;;;;;;0.05;0.05;;;16.60;58.40;;;;;;4213661;28;20052;-41
2021/01/10 09:31:06;;;;;;;0.43;0.43;;;16.50;58.50;;;;;;4213489;28;20677;-40
2021/01/10 09:33:30;;;;;;;;;;;16.30;59.10;;;;;;4214120;28;20121;-40
2021/01/10 09:35:53;;;;;;;0.10;0.10;;;16.20;59.00;;;;;;4213148;28;20362;-40
2021/01/10 09:38:16;;;;;;;0.17;0.17;;;16.10;59.20;;;;;;4213646;28;20567;-41
2021/01/10 09:40:38;;;;;;;0.00;0.00;;;16.20;58.90;;;;;;4213389;28;20811;-41
2021/01/10 09:42:58;;;;;;;;;;;16.70;57.40;;;;;;4213120;28;20422;-41
2021/01/10 09:45:33;;;;;;;0.00;0.00;;;17.70;54.90;;;;;;4213233;28;20328;-42
2021/01/10 09:47:56;;;;;;;0.00;0.00;;;18.70;52.70;;;;;;4212157;28;20044;-42
2021/01/10 09:50:17;;;;;;;0.05;0.05;;;19.50;50.00;;;;;;4213156;28;20123;-41
2021/01/10 09:52:49;;;;;;;0.00;0.00;;;20.40;47.90;;;;;;4213272;28;20122;-41
2021/01/10 09:55:10;;;;;;;5.38;2.28;;;21.20;45.80;;;;;;4213135;28;20472;-42
2021/01/10 09:57:31;;;;;;;0.00;0.00;;;22.00;43.80;;;;;;4213407;28;20117;-42
2021/01/10 10:00:05;;;;;;;0.00;0.00;;;22.70;42.20;;;;;;4212885;28;20052;-42
2021/01/10 10:02:35;;;;;;;0.13;0.13;;;23.10;41.90;;;;;;4213414;28;20047;-42
2021/01/10 10:05:09;;;;;;;0.00;0.00;;;23.30;40.60;;;;;;4211325;28;20074;-41
2021/01/10 10:07:32;;;;;;;0.55;0.55;;;23.30;40.50;;;;;;4208528;28;20072;-41
2021/01/10 10:09:54;;;;;;;0.03;0.03;;;23.00;41.10;;;;;;4211772;28;20078;-41
2021/01/10 10:12:16;;;;;;;0.10;0.10;;;22.60;41.80;;;;;;4212888;28;20135;-41
2021/01/10 10:14:36;;;;;;;0.00;0.00;;;22.10;42.80;;;;;;4213194;28;20098;-41
2021/01/10 10:16:59;;;;;;;0.00;0.00;;;21.50;44.00;;;;;;4211218;28;20601;-41
2021/01/10 10:19:24;;;;;;;0.00;0.00;;;21.00;45.00;;;;;;4212758;28;20061;-41
2021/01/10 10:21:48;;;;;;;0.40;0.40;;;20.60;45.80;;;;;;4212621;28;20075;-41
2021/01/10 10:24:09;;;;;;;0.30;0.30;;;20.40;46.40;;;;;;4212773;28;20675;-40
2021/01/10 10:26:42;;;;;;;0.00;0.00;;;20.30;46.70;;;;;;4212529;28;20109;-42
2021/01/10 10:29:03;;;;;;;10.35;1.45;;;20.50;46.50;;;;;;4213139;28;20491;-41
2021/01/10 10:31:24;;;;;;;0.00;0.00;;;20.50;46.20;;;;;;4212269;28;20457;-41
2021/01/10 10:33:45;;;;;;;0.00;0.00;;;20.60;46.10;;;;;;4196808;28;20462;-40
2021/01/10 10:36:06;;;;;;;0.47;0.47;;;20.70;45.90;;;;;;4212373;28;20052;-41
2021/01/10 10:38:28;;;;;;;0.10;0.10;;;20.80;46.00;;;;;;4212210;28;20063;-40
2021/01/10 10:40:48;;;;;;;0.35;0.35;;;21.00;46.20;;;;;;4212027;28;20051;-40
2021/01/10 10:43:10;;;;;;;0.57;0.57;;;21.30;45.60;;;;;;4212037;28;20132;-41
2021/01/10 10:45:31;;;;;;;71.53;1.75;;;21.50;44.80;;;;;;4212110;28;20071;-40
2021/01/10 10:47:52;;;;;;;0.43;0.43;;;21.70;44.00;;;;;;4199227;28;20130;-41
2021/01/10 10:50:13;;;;;;;0.05;0.05;;;21.90;43.60;;;;;;4212328;28;20052;-41
2021/01/10 10:52:34;;;;;;;;;;;22.00;43.30;;;;;;4211083;28;20085;-41
2021/01/10 10:54:55;;;;;;;0.40;0.40;;;22.00;43.40;;;;;;4212008;28;20333;-40
2021/01/10 10:57:16;;;;;;;1.35;1.25;;;22.10;43.30;;;;;;4211825;28;20048;-41
2021/01/10 10:59:38;;;;;;;1.00;0.45;;;22.10;43.30;;;;;;4211798;28;20113;-42
2021/01/10 11:02:00;;;;;;;0.22;0.22;;;22.00;43.60;;;;;;4212486;28;20056;-41
2021/01/10 11:04:21;;;;;;;;;;;21.90;43.70;;;;;;4212752;28;20044;-41
2021/01/10 11:06:42;;;;;;;0.47;0.47;;;21.90;43.90;;;;;;4211133;28;20004;-41
2021/01/10 11:09:05;;;;;;;0.15;0.15;;;21.90;44.30;;;;;;4212354;28;20081;-41
2021/01/10 11:11:34;;;;;;;0.00;0.00;;;21.90;44.30;;;;;;4212223;28;20060;-41
2021/01/10 11:13:55;;;;;;;0.65;0.65;;;21.80;44.80;;;;;;4211860;28;20056;-42
2021/01/10 11:16:19;;;;;;;0.40;0.40;;;21.40;45.70;;;;;;4211763;28;20089;-40
2021/01/10 11:18:41;;;;;;;1.20;1.00;;;21.10;46.50;;;;;;4211910;28;20075;-41
2021/01/10 11:21:02;;;;;;;0.08;0.08;;;20.90;46.70;;;;;;4212573;28;20052;-40
2021/01/10 11:23:23;;;;;;;0.80;0.80;;;20.80;46.70;;;;;;4212032;28;20156;-40
2021/01/10 11:25:44;;;;;;;;;;;20.60;46.90;;;;;;4212003;28;20052;-40
2021/01/10 11:28:06;;;;;;;0.00;0.00;;;20.40;47.40;;;;;;4212568;28;20321;-40
2021/01/10 11:30:27;;;;;;;0.00;0.00;;;20.30;48.70;;;;;;4211496;28;20055;-40
2021/01/10 11:32:49;;;;;;;;;;;20.30;48.40;;;;;;4212401;28;20040;-39
2021/01/10 11:35:10;;;;;;;0.20;0.20;;;20.30;48.70;;;;;;4211832;28;19920;-40
2021/01/10 11:37:31;;;;;;;0.00;0.00;;;20.40;48.90;;;;;;4212331;28;20052;-40
2021/01/10 11:39:52;;;;;;;1.80;1.55;;;20.50;49.00;;;;;;4211726;28;20052;-40
2021/01/10 11:42:28;;;;;;;0.13;0.13;;;20.60;48.90;;;;;;4211602;28;20063;-40
2021/01/10 11:44:49;;;;;;;0.40;0.40;;;20.70;48.90;;;;;;4211822;28;20130;-42
2021/01/10 11:47:10;;;;;;;0.45;0.43;;;20.80;49.00;;;;;;4211745;28;20212;-40
2021/01/10 11:49:32;;;;;;;0.05;0.05;;;20.80;49.10;;;;;;4214745;28;20044;-40
2021/01/10 11:51:54;;;;;;;0.00;0.00;;;20.80;49.30;;;;;;4215557;28;20055;-42
2021/01/10 11:54:15;;;;;;;0.65;0.65;;;20.60;49.60;;;;;;4215576;28;20083;-40
2021/01/10 11:56:36;;;;;;;0.00;0.00;;;20.40;50.20;;;;;;4215600;28;20056;-40
2021/01/10 11:58:57;;;;;;;0.08;0.08;;;20.20;50.90;;;;;;4215481;28;20075;-41
2021/01/10 12:01:17;;;;;;;0.10;0.10;;;20.10;51.50;;;;;;4215255;28;20052;-40
2021/01/10 12:03:39;;;;;;;0.70;0.70;;;20.10;51.70;;;;;;4215240;28;20050;-40
2021/01/10 12:06:01;;;;;;;;;;;20.10;51.80;;;;;;4215259;28;20052;-40
2021/01/10 12:08:22;;;;;;;;;;;20.20;51.90;;;;;;4215224;28;19924;-40
2021/01/10 12:10:43;;;;;;;0.17;0.15;;;20.20;51.80;;;;;;4214787;28;19924;-40
2021/01/10 12:13:04;;;;;;;0.10;0.10;;;20.30;51.70;;;;;;4214771;28;20072;-40
2021/01/10 12:15:25;;;;;;;;;;;20.40;51.50;;;;;;4215035;28;20524;-40
2021/01/10 12:17:46;;;;;;;0.20;0.15;;;20.50;51.30;;;;;;4214856;28;19998;-40
2021/01/10 12:20:08;;;;;;;0.00;0.00;;;20.70;51.20;;;;;;4214679;28;20075;-40
2021/01/10 12:22:30;;;;;;;0.47;0.47;;;20.80;51.00;;;;;;4214853;28;20052;-41
2021/01/10 12:24:51;;;;;;;0.00;0.00;;;20.90;50.80;;;;;;4215193;28;20225;-40
2021/01/10 12:27:12;;;;;;;0.00;0.00;;;21.00;50.70;;;;;;4214547;28;20056;-40
2021/01/10 12:29:33;;;;;;;0.20;0.20;;;21.10;50.60;;;;;;4214046;28;20118;-42